Time;durP1;ratioP1;P1;durP2;ratioP2;P2;SDS_P1;SDS_P2;PMS_P1;PMS_P2;Temp;Humidity;BMP_temperature;BMP_pressure;BME280_temperature;BME280_humidity;BME280_pressure;Samples;Min_cycle;Max_cycle;Signal;HPM_P1;HPM_P2
2023/06/13 00:01:24;;;;;;;;;;;21.90;60.20;;;;;;4994380;28;19914;-67
2023/06/13 00:03:51;;;;;;;;;;;21.90;60.20;;;;;;5006556;28;19917;-67
2023/06/13 00:06:17;;;;;;;;;;;21.90;60.30;;;;;;4987506;28;20434;-67
2023/06/13 00:08:49;;;;;;;;;;;21.80;60.30;;;;;;4986824;28;19952;-67
2023/06/13 00:11:14;;;;;;;;;;;21.80;60.30;;;;;;4987011;28;20451;-67
2023/06/13 00:13:46;;;;;;;;;;;21.70;60.40;;;;;;4986050;28;19924;-67
2023/06/13 00:16:12;;;;;;;;;;;21.70;60.40;;;;;;4986273;28;19921;-67
2023/06/13 00:18:37;;;;;;;;;;;21.70;60.30;;;;;;4986652;28;19913;-67
2023/06/13 00:21:03;;;;;;;;;;;21.60;60.40;;;;;;4987166;28;19972;-67
2023/06/13 00:23:29;;;;;;;;;;;21.60;60.40;;;;;;4986607;28;19922;-67
2023/06/13 00:25:54;;;;;;;;;;;21.50;60.60;;;;;;4986160;28;20611;-67
2023/06/13 00:28:20;;;;;;;;;;;21.50;60.60;;;;;;4987008;28;19921;-67
2023/06/13 00:30:48;;;;;;;;;;;21.50;60.90;;;;;;4998527;28;20597;-67
2023/06/13 00:33:20;;;;;;;;;;;21.40;60.60;;;;;;5005290;28;19914;-69
2023/06/13 00:35:46;;;;;;;;;;;21.40;60.60;;;;;;4997365;28;19913;-68
2023/06/13 00:44:45;;;;;;;;;;;21.30;60.80;;;;;;4980100;28;19924;-67
2023/06/13 00:47:26;;;;;;;;;;;21.20;60.90;;;;;;4985605;28;19949;-67
2023/06/13 00:50:01;;;;;;;;;;;21.20;60.90;;;;;;5017046;28;20410;-67
2023/06/13 00:52:27;;;;;;;;;;;21.20;61.00;;;;;;5004239;28;20401;-67
2023/06/13 00:55:23;;;;;;;;;;;21.10;61.00;;;;;;4985067;28;19991;-67
2023/06/13 00:58:05;;;;;;;;;;;21.10;61.10;;;;;;4969381;28;19920;-67
2023/06/13 01:00:35;;;;;;;;;;;21.00;60.90;;;;;;4986936;28;20467;-68
2023/06/13 01:03:07;;;;;;;;;;;21.00;61.20;;;;;;4984894;28;20592;-68
2023/06/13 01:05:33;;;;;;;;;;;21.00;61.30;;;;;;4984895;28;19949;-68
2023/06/13 01:08:11;;;;;;;;;;;20.90;61.20;;;;;;4985910;28;19994;-68
2023/06/13 01:10:40;;;;;;;;;;;20.90;61.30;;;;;;4986742;28;20287;-67
2023/06/13 01:13:29;;;;;;;;;;;20.90;61.40;;;;;;4984787;28;19916;-67
2023/06/13 01:16:15;;;;;;;;;;;20.90;61.40;;;;;;4985319;28;19917;-67
2023/06/13 01:18:44;;;;;;;;;;;20.80;61.40;;;;;;4966815;28;19910;-67
2023/06/13 01:21:11;;;;;;;;;;;20.80;61.60;;;;;;4970437;28;19941;-67
2023/06/13 01:23:40;;;;;;;;;;;20.80;61.60;;;;;;4985436;28;20547;-67
2023/06/13 01:26:25;;;;;;;;;;;20.70;61.60;;;;;;4985844;28;19910;-68
2023/06/13 01:28:53;;;;;;;;;;;20.70;61.70;;;;;;4987084;28;20661;-67
2023/06/13 01:31:25;;;;;;;;;;;20.70;61.70;;;;;;5024783;28;20243;-67
2023/06/13 01:33:51;;;;;;;;;;;20.60;61.70;;;;;;4976295;28;19913;-68
2023/06/13 01:36:17;;;;;;;;;;;20.60;61.80;;;;;;4984819;28;19914;-67
2023/06/13 01:38:58;;;;;;;;;;;20.60;61.90;;;;;;4984363;28;19921;-68
2023/06/13 01:41:26;;;;;;;;;;;20.50;61.90;;;;;;4982925;28;19914;-67
2023/06/13 01:47:14;;;;;;;;;;;20.50;62.00;;;;;;4982245;28;19936;-67
2023/06/13 01:50:04;;;;;;;;;;;20.40;62.00;;;;;;4969874;28;19910;-67
2023/06/13 01:52:35;;;;;;;;;;;20.40;62.10;;;;;;4976466;28;20303;-68
2023/06/13 01:55:32;;;;;;;;;;;20.40;62.20;;;;;;4985111;28;19939;-67
2023/06/13 01:58:03;;;;;;;;;;;20.40;62.30;;;;;;4985119;28;19913;-67
2023/06/13 02:00:32;;;;;;;;;;;20.30;62.30;;;;;;4999098;28;19941;-67
2023/06/13 02:02:58;;;;;;;;;;;20.30;62.40;;;;;;4995259;28;20298;-67
2023/06/13 02:06:08;;;;;;;;;;;20.30;62.30;;;;;;4985024;28;19916;-67
2023/06/13 02:08:40;;;;;;;;;;;20.20;62.40;;;;;;4960624;28;19920;-67
2023/06/13 02:11:06;;;;;;;;;;;20.20;62.40;;;;;;4986794;28;19956;-67
2023/06/13 02:13:31;;;;;;;;;;;20.10;62.50;;;;;;4987940;28;19957;-68
2023/06/13 02:15:57;;;;;;;;;;;20.20;62.60;;;;;;4987500;28;19952;-67
2023/06/13 02:18:30;;;;;;;;;;;20.10;62.70;;;;;;4987249;28;19918;-67
2023/06/13 02:20:56;;;;;;;;;;;20.10;62.80;;;;;;4988412;28;19914;-67
2023/06/13 02:23:24;;;;;;;;;;;20.10;62.80;;;;;;4987206;28;19926;-67
2023/06/13 02:25:51;;;;;;;;;;;20.10;63.00;;;;;;4985733;28;20641;-67
2023/06/13 02:28:17;;;;;;;;;;;20.00;62.90;;;;;;4988210;28;20577;-67
2023/06/13 02:30:46;;;;;;;;;;;20.00;62.90;;;;;;4990309;28;20324;-67
2023/06/13 02:33:25;;;;;;;;;;;20.00;63.00;;;;;;4987820;28;19914;-68
2023/06/13 02:35:51;;;;;;;;;;;19.90;63.10;;;;;;4987842;28;19914;-68
2023/06/13 02:38:18;;;;;;;;;;;19.90;63.00;;;;;;4987159;28;19940;-68
2023/06/13 02:40:44;;;;;;;;;;;19.90;63.20;;;;;;4995493;28;19961;-67
2023/06/13 02:43:09;;;;;;;;;;;19.90;63.30;;;;;;5003891;28;19918;-67
2023/06/13 02:45:35;;;;;;;;;;;19.90;63.30;;;;;;4987918;28;19936;-67
2023/06/13 02:48:00;;;;;;;;;;;19.80;63.10;;;;;;4987786;28;19914;-68
2023/06/13 02:50:26;;;;;;;;;;;19.80;63.30;;;;;;4987988;28;19996;-68
2023/06/13 02:52:54;;;;;;;;;;;19.80;63.50;;;;;;4987430;28;19921;-67
2023/06/13 02:55:20;;;;;;;;;;;19.80;63.50;;;;;;4984771;28;19910;-67
2023/06/13 02:58:02;;;;;;;;;;;19.80;63.50;;;;;;4983219;28;20486;-67
2023/06/13 03:00:33;;;;;;;;;;;19.70;63.50;;;;;;4990794;28;19990;-67
2023/06/13 03:03:01;;;;;;;;;;;19.70;63.60;;;;;;4987125;28;19924;-67
2023/06/13 03:05:27;;;;;;;;;;;19.70;63.70;;;;;;4987578;28;19914;-67
2023/06/13 03:07:58;;;;;;;;;;;19.70;63.70;;;;;;4987837;28;19914;-67
2023/06/13 03:10:28;;;;;;;;;;;19.60;63.60;;;;;;4986593;28;19910;-68
2023/06/13 03:12:56;;;;;;;;;;;19.60;63.60;;;;;;4987460;28;20054;-67
2023/06/13 03:15:22;;;;;;;;;;;19.60;63.50;;;;;;4987000;28;19917;-67
2023/06/13 03:17:56;;;;;;;;;;;19.60;63.70;;;;;;4986715;28;20418;-67
2023/06/13 03:20:31;;;;;;;;;;;19.50;64.00;;;;;;4986969;28;19914;-67
2023/06/13 03:23:06;;;;;;;;;;;19.50;63.90;;;;;;4987157;28;19966;-68
2023/06/13 05:03:16;;;;;;;;;;;19.00;65.40;;;;;;4995090;28;19956;-67
2023/06/13 05:05:50;;;;;;;;;;;19.00;65.40;;;;;;4985891;28;19918;-67
2023/06/13 05:08:28;;;;;;;;;;;19.00;65.50;;;;;;4976537;28;20394;-67
2023/06/13 05:10:54;;;;;;;;;;;19.00;65.70;;;;;;4985744;28;19914;-67
2023/06/13 05:13:29;;;;;;;;;;;19.00;65.50;;;;;;4984855;28;19913;-67
2023/06/13 05:19:10;;;;;;;;;;;19.00;65.60;;;;;;4963301;28;19987;-67
2023/06/13 05:21:54;;;;;;;;;;;19.00;65.70;;;;;;4983280;28;19916;-67
2023/06/13 05:46:08;;;;;;;;;;;19.00;65.50;;;;;;4973124;28;20278;-67
2023/06/13 05:48:33;;;;;;;;;;;18.90;65.70;;;;;;4978403;28;19910;-68
2023/06/13 05:51:03;;;;;;;;;;;19.00;65.80;;;;;;4988476;28;19910;-67
2023/06/13 05:53:30;;;;;;;;;;;18.90;65.60;;;;;;4988096;28;19914;-67
2023/06/13 05:55:55;;;;;;;;;;;18.90;65.50;;;;;;4982909;28;19995;-67
2023/06/13 05:58:21;;;;;;;;;;;18.90;65.40;;;;;;4988660;28;20304;-67
2023/06/13 06:09:56;;;;;;;;;;;19.00;65.60;;;;;;4991878;28;19920;-67
2023/06/13 06:12:24;;;;;;;;;;;19.00;65.60;;;;;;4988989;28;20270;-68
2023/06/13 06:14:51;;;;;;;;;;;19.00;65.40;;;;;;4988357;28;20462;-68
2023/06/13 06:17:25;;;;;;;;;;;19.00;65.60;;;;;;4988150;28;20014;-67
2023/06/13 06:19:51;;;;;;;;;;;19.00;65.50;;;;;;4988718;28;19914;-68
2023/06/13 06:22:20;;;;;;;;;;;19.00;65.50;;;;;;4987665;28;19999;-67
2023/06/13 06:24:52;;;;;;;;;;;19.10;65.60;;;;;;4988271;28;20516;-68
2023/06/13 06:27:17;;;;;;;;;;;19.10;65.60;;;;;;4987745;28;19918;-67
2023/06/13 07:06:37;;;;;;;;;;;19.30;65.20;;;;;;4987217;28;19925;-67
2023/06/13 07:09:11;;;;;;;;;;;19.30;65.00;;;;;;4987773;28;20028;-67
2023/06/13 07:11:40;;;;;;;;;;;19.30;65.00;;;;;;4987766;28;20008;-68
2023/06/13 07:14:05;;;;;;;;;;;19.40;65.00;;;;;;4987294;28;19913;-68
2023/06/13 07:16:43;;;;;;;;;;;19.40;65.00;;;;;;4986742;28;20425;-67
2023/06/13 07:19:12;;;;;;;;;;;19.40;65.00;;;;;;4981505;28;19920;-67
2023/06/13 07:21:38;;;;;;;;;;;19.40;64.90;;;;;;4986800;28;19928;-68
2023/06/13 07:24:09;;;;;;;;;;;19.40;64.80;;;;;;4986730;28;19925;-67
2023/06/13 07:26:44;;;;;;;;;;;19.40;64.70;;;;;;4986622;28;19910;-68
2023/06/13 07:29:18;;;;;;;;;;;19.50;64.80;;;;;;4987192;28;19999;-68
2023/06/13 07:31:43;;;;;;;;;;;19.50;64.70;;;;;;4993537;28;20295;-67
2023/06/13 07:34:11;;;;;;;;;;;19.50;64.70;;;;;;4985661;28;19935;-67
2023/06/13 07:36:49;;;;;;;;;;;19.50;64.60;;;;;;4991486;28;19918;-68
2023/06/13 07:39:34;;;;;;;;;;;19.50;64.50;;;;;;4986088;28;19916;-67
2023/06/13 07:42:03;;;;;;;;;;;19.60;64.50;;;;;;4983500;28;19967;-67
2023/06/13 07:44:29;;;;;;;;;;;19.60;64.50;;;;;;4951570;28;19919;-67
2023/06/13 07:46:55;;;;;;;;;;;19.60;64.50;;;;;;4986090;28;19910;-67
2023/06/13 07:49:36;;;;;;;;;;;19.70;64.40;;;;;;4986539;28;20029;-67
2023/06/13 07:52:20;;;;;;;;;;;19.70;64.40;;;;;;4976411;28;19949;-67
2023/06/13 07:54:55;;;;;;;;;;;19.70;64.30;;;;;;4986873;28;19917;-67
2023/06/13 07:57:29;;;;;;;;;;;19.70;64.30;;;;;;4986009;28;19934;-68
2023/06/13 08:00:16;;;;;;;;;;;19.70;64.10;;;;;;4987028;28;19914;-67
2023/06/13 08:02:41;;;;;;;;;;;19.80;64.20;;;;;;4984395;28;20298;-67
2023/06/13 09:39:48;;;;;;;;;;;21.00;61.70;;;;;;4980736;28;20337;-67
2023/06/13 09:42:14;;;;;;;;;;;21.10;61.70;;;;;;4979079;28;20570;-67
2023/06/13 09:44:39;;;;;;;;;;;21.10;61.50;;;;;;4989295;28;19918;-68
2023/06/13 09:47:05;;;;;;;;;;;21.20;61.60;;;;;;4988603;28;19963;-67
2023/06/13 09:49:30;;;;;;;;;;;21.30;61.50;;;;;;4988992;28;20445;-68
2023/06/13 09:52:00;;;;;;;;;;;21.30;61.30;;;;;;4989264;28;19922;-67
2023/06/13 09:54:47;;;;;;;;;;;21.40;61.40;;;;;;4989367;28;19917;-67
2023/06/13 09:57:12;;;;;;;;;;;21.40;61.10;;;;;;4988345;28;19953;-67
2023/06/13 09:59:38;;;;;;;;;;;21.50;61.00;;;;;;4989184;28;20442;-67
2023/06/13 10:02:04;;;;;;;;;;;21.60;61.30;;;;;;5003501;28;19913;-67
2023/06/13 10:04:30;;;;;;;;;;;21.60;61.00;;;;;;5002787;28;19914;-67
2023/06/13 10:06:55;;;;;;;;;;;21.70;60.00;;;;;;4988699;28;19913;-67
2023/06/13 10:09:21;;;;;;;;;;;21.80;60.40;;;;;;4971417;28;19914;-67
2023/06/13 10:11:48;;;;;;;;;;;21.90;60.60;;;;;;4969722;28;20520;-67
2023/06/13 10:14:16;;;;;;;;;;;21.90;60.50;;;;;;4969288;28;19914;-67
2023/06/13 10:16:47;;;;;;;;;;;22.00;60.30;;;;;;4972144;28;19914;-67
2023/06/13 10:19:16;;;;;;;;;;;22.10;60.50;;;;;;5005329;28;19937;-67
2023/06/13 10:21:43;;;;;;;;;;;22.20;60.30;;;;;;5008594;28;20362;-67
2023/06/13 10:24:09;;;;;;;;;;;22.30;60.60;;;;;;5008046;28;19922;-67
2023/06/13 10:26:42;;;;;;;;;;;22.30;60.10;;;;;;5007692;28;19909;-67
2023/06/13 10:29:13;;;;;;;;;;;22.40;59.70;;;;;;5008175;28;20004;-67
2023/06/13 10:31:39;;;;;;;;;;;22.50;60.70;;;;;;5007240;28;19998;-67
2023/06/13 10:34:23;;;;;;;;;;;22.60;60.90;;;;;;5008092;28;20020;-67
2023/06/13 10:37:08;;;;;;;;;;;22.70;60.70;;;;;;5007727;28;19913;-67
2023/06/13 10:39:47;;;;;;;;;;;22.70;60.70;;;;;;4988738;28;19914;-67
2023/06/13 10:42:19;;;;;;;;;;;22.80;59.70;;;;;;4988566;28;19914;-67
2023/06/13 10:44:56;;;;;;;;;;;22.90;59.80;;;;;;4988598;28;19922;-67
2023/06/13 10:47:22;;;;;;;;;;;23.00;59.40;;;;;;4986521;28;19910;-67
2023/06/13 10:49:48;;;;;;;;;;;23.10;60.70;;;;;;5002717;28;19917;-67
2023/06/13 10:52:14;;;;;;;;;;;23.20;60.10;;;;;;4986904;28;20668;-67
2023/06/13 10:54:40;;;;;;;;;;;23.30;60.40;;;;;;4988267;28;19914;-67
2023/06/13 10:57:06;;;;;;;;;;;23.40;60.30;;;;;;4986650;28;19917;-67
2023/06/13 10:59:36;;;;;;;;;;;23.50;59.40;;;;;;4988163;28;19914;-67
2023/06/13 11:02:02;;;;;;;;;;;23.60;60.30;;;;;;5002166;28;19967;-67
2023/06/13 11:04:28;;;;;;;;;;;23.70;60.30;;;;;;5002296;28;19957;-67
2023/06/13 11:07:13;;;;;;;;;;;23.80;60.40;;;;;;4987817;28;19961;-67
2023/06/13 11:09:39;;;;;;;;;;;23.90;60.40;;;;;;4968667;28;19918;-67
2023/06/13 11:12:06;;;;;;;;;;;24.10;60.60;;;;;;4968439;28;20601;-67
2023/06/13 11:14:32;;;;;;;;;;;24.20;60.50;;;;;;4968650;28;20009;-67
2023/06/13 11:16:57;;;;;;;;;;;24.30;60.40;;;;;;4968228;28;19997;-67
2023/06/13 11:19:29;;;;;;;;;;;24.40;60.50;;;;;;4968598;28;20602;-67
2023/06/13 11:21:58;;;;;;;;;;;24.50;60.10;;;;;;4968438;28;19963;-67
2023/06/13 11:24:23;;;;;;;;;;;24.60;60.50;;;;;;4968633;28;19918;-66
2023/06/13 11:26:49;;;;;;;;;;;24.70;60.50;;;;;;4968429;28;19914;-67
2023/06/13 11:29:15;;;;;;;;;;;24.80;60.50;;;;;;4968356;28;19914;-66
2023/06/13 11:31:41;;;;;;;;;;;24.80;60.60;;;;;;4994381;28;20068;-67
2023/06/13 11:34:13;;;;;;;;;;;24.90;60.60;;;;;;4995999;28;19922;-66
2023/06/13 11:36:41;;;;;;;;;;;25.00;60.60;;;;;;4987523;28;20628;-67
2023/06/13 11:39:09;;;;;;;;;;;25.10;60.60;;;;;;4991620;28;19962;-67
2023/06/13 11:41:35;;;;;;;;;;;25.20;60.60;;;;;;5005734;28;19914;-67
2023/06/13 11:44:01;;;;;;;;;;;25.30;60.50;;;;;;5006352;28;19970;-67
2023/06/13 11:46:27;;;;;;;;;;;25.30;60.60;;;;;;5000716;28;19930;-67
2023/06/13 11:48:56;;;;;;;;;;;25.40;60.70;;;;;;4983929;28;20388;-67
2023/06/13 11:51:21;;;;;;;;;;;25.50;60.60;;;;;;5017414;28;20054;-66
2023/06/13 11:53:51;;;;;;;;;;;25.60;60.40;;;;;;5013391;28;20311;-67
2023/06/13 11:56:20;;;;;;;;;;;25.60;60.40;;;;;;5023697;28;19922;-66
2023/06/13 11:58:48;;;;;;;;;;;25.70;60.60;;;;;;5068187;28;19912;-67
2023/06/13 12:01:15;;;;;;;;;;;25.80;60.50;;;;;;5037424;28;19947;-67
2023/06/13 12:03:42;;;;;;;;;;;25.90;60.60;;;;;;4986119;28;19981;-66
2023/06/13 12:06:08;;;;;;;;;;;25.90;60.30;;;;;;4986112;28;19940;-66
2023/06/13 12:08:34;;;;;;;;;;;26.00;60.50;;;;;;4979413;28;20369;-66
2023/06/13 12:11:06;;;;;;;;;;;26.00;60.50;;;;;;5005217;28;19909;-67
2023/06/13 12:13:33;;;;;;;;;;;26.10;60.60;;;;;;4995635;28;20397;-66
2023/06/13 12:15:59;;;;;;;;;;;26.10;60.40;;;;;;4986289;28;19917;-67
2023/06/13 12:18:24;;;;;;;;;;;26.20;60.40;;;;;;4986075;28;20523;-66
2023/06/13 12:20:53;;;;;;;;;;;26.30;60.60;;;;;;4986173;28;19914;-67
2023/06/13 12:23:19;;;;;;;;;;;26.40;60.40;;;;;;4986257;28;19958;-67
2023/06/13 12:25:45;;;;;;;;;;;26.40;60.60;;;;;;4986755;28;19914;-67
2023/06/13 12:28:15;;;;;;;;;;;26.50;60.60;;;;;;4986919;28;19921;-66
2023/06/13 12:30:45;;;;;;;;;;;26.50;60.50;;;;;;4987224;28;19910;-66
2023/06/13 12:33:14;;;;;;;;;;;26.60;60.40;;;;;;4985798;28;19913;-66
2023/06/13 12:35:47;;;;;;;;;;;26.70;59.40;;;;;;4992004;28;19978;-66
2023/06/13 12:38:13;;;;;;;;;;;26.80;61.00;;;;;;4994724;28;19965;-66
2023/06/13 12:40:38;;;;;;;;;;;26.80;60.30;;;;;;4985616;28;19922;-66
2023/06/13 12:43:04;;;;;;;;;;;26.90;60.50;;;;;;5030306;28;19918;-66
2023/06/13 12:45:30;;;;;;;;;;;26.90;60.10;;;;;;5028236;28;20008;-66
2023/06/13 12:47:56;;;;;;;;;;;27.00;60.30;;;;;;5011923;28;19925;-66
2023/06/13 12:50:26;;;;;;;;;;;27.10;60.80;;;;;;5071048;28;19908;-66
2023/06/13 12:53:21;;;;;;;;;;;27.10;59.90;;;;;;5037238;28;20419;-66
2023/06/13 12:55:48;;;;;;;;;;;27.10;60.30;;;;;;5036712;28;20369;-66
2023/06/13 12:58:31;;;;;;;;;;;27.20;60.40;;;;;;5087361;28;20369;-66
2023/06/13 13:01:01;;;;;;;;;;;27.30;60.30;;;;;;5006908;28;19922;-66
2023/06/13 13:03:26;;;;;;;;;;;27.30;60.10;;;;;;5065771;28;19955;-66
2023/06/13 13:05:55;;;;;;;;;;;27.40;60.00;;;;;;5071665;27;19947;-66
2023/06/13 13:08:22;;;;;;;;;;;27.50;59.90;;;;;;5029569;28;19921;-66
2023/06/13 13:10:48;;;;;;;;;;;27.50;60.00;;;;;;5024137;28;19953;-66
2023/06/13 13:13:14;;;;;;;;;;;27.60;60.10;;;;;;5040417;28;19909;-67
2023/06/13 13:15:39;;;;;;;;;;;27.60;60.10;;;;;;5042499;28;19919;-66
2023/06/13 13:18:05;;;;;;;;;;;27.60;59.90;;;;;;5005668;28;19922;-66
2023/06/13 13:20:31;;;;;;;;;;;27.70;59.60;;;;;;5009966;28;19918;-66
2023/06/13 13:22:56;;;;;;;;;;;27.70;60.00;;;;;;5012169;28;19976;-66
2023/06/13 13:25:22;;;;;;;;;;;27.80;59.90;;;;;;5029292;28;20616;-66
2023/06/13 13:27:47;;;;;;;;;;;27.90;59.40;;;;;;5042910;28;19912;-66
2023/06/13 13:30:13;;;;;;;;;;;27.90;59.90;;;;;;5026813;28;20503;-66
2023/06/13 13:32:39;;;;;;;;;;;27.90;59.90;;;;;;5025426;28;19914;-67
2023/06/13 13:35:05;;;;;;;;;;;28.00;60.00;;;;;;5034337;28;19910;-66
2023/06/13 13:37:30;;;;;;;;;;;28.00;59.90;;;;;;5026956;28;19921;-66
2023/06/13 13:39:56;;;;;;;;;;;28.00;59.70;;;;;;5001987;28;19983;-66
2023/06/13 13:42:22;;;;;;;;;;;28.10;59.80;;;;;;5000633;28;19914;-66
2023/06/13 13:44:47;;;;;;;;;;;28.20;59.30;;;;;;4995899;28;19987;-66
2023/06/13 13:47:13;;;;;;;;;;;28.30;59.90;;;;;;4982786;28;19913;-66
2023/06/13 13:49:39;;;;;;;;;;;28.30;59.60;;;;;;4981847;28;20030;-66
2023/06/13 13:52:04;;;;;;;;;;;28.40;59.60;;;;;;5002612;28;19940;-66
2023/06/13 13:54:30;;;;;;;;;;;28.40;58.90;;;;;;5019616;28;20302;-66
2023/06/13 13:56:56;;;;;;;;;;;28.50;59.40;;;;;;5027454;28;19914;-66
2023/06/13 13:59:21;;;;;;;;;;;28.50;59.40;;;;;;5038646;28;19965;-66
2023/06/13 14:01:47;;;;;;;;;;;28.50;59.30;;;;;;5017065;28;20332;-66
2023/06/13 14:04:15;;;;;;;;;;;28.50;59.30;;;;;;5030777;28;19963;-66
2023/06/13 14:06:41;;;;;;;;;;;28.60;59.40;;;;;;5019943;28;19914;-66
2023/06/13 14:09:09;;;;;;;;;;;28.60;59.40;;;;;;5021495;28;19929;-66
2023/06/13 14:11:35;;;;;;;;;;;28.60;59.00;;;;;;4983090;28;19979;-66
2023/06/13 14:14:01;;;;;;;;;;;28.70;59.20;;;;;;5057950;28;21360;-66
2023/06/13 14:16:29;;;;;;;;;;;28.70;59.30;;;;;;5044108;28;19925;-66
2023/06/13 14:18:57;;;;;;;;;;;28.80;58.90;;;;;;5031313;28;19919;-66
2023/06/13 14:21:22;;;;;;;;;;;28.80;58.30;;;;;;4994221;28;20067;-66
2023/06/13 14:23:48;;;;;;;;;;;28.90;59.00;;;;;;5017702;28;20005;-66
2023/06/13 14:26:13;;;;;;;;;;;28.90;58.50;;;;;;5043317;28;20021;-66
2023/06/13 14:28:41;;;;;;;;;;;29.00;58.30;;;;;;5061911;28;19913;-66
2023/06/13 14:31:07;;;;;;;;;;;29.00;58.30;;;;;;5007053;28;20591;-66
2023/06/13 14:33:32;;;;;;;;;;;29.10;57.70;;;;;;5015591;28;19913;-66
2023/06/13 14:35:58;;;;;;;;;;;29.20;56.90;;;;;;5048086;28;20427;-66
2023/06/13 14:38:23;;;;;;;;;;;29.30;53.50;;;;;;4996066;28;19932;-65
2023/06/13 14:40:49;;;;;;;;;;;29.30;55.60;;;;;;4999936;28;19960;-67
2023/06/13 14:43:14;;;;;;;;;;;29.30;55.30;;;;;;5013268;28;20298;-71
2023/06/13 14:45:40;;;;;;;;;;;29.30;54.20;;;;;;4988475;28;19910;-67
2023/06/13 14:48:05;;;;;;;;;;;29.30;53.20;;;;;;4981623;28;19914;-67
2023/06/13 14:50:31;;;;;;;;;;;29.20;52.60;;;;;;4987757;28;19913;-66
2023/06/13 14:52:56;;;;;;;;;;;29.40;51.10;;;;;;5027841;28;19912;-65
2023/06/13 14:55:22;;;;;;;;;;;29.50;50.50;;;;;;5053707;28;20555;-66
2023/06/13 14:57:48;;;;;;;;;;;29.50;49.90;;;;;;5089621;28;19912;-66
2023/06/13 15:00:13;;;;;;;;;;;29.70;50.90;;;;;;5082496;28;19999;-66
2023/06/13 15:02:39;;;;;;;;;;;29.70;50.60;;;;;;5007341;28;19914;-68
2023/06/13 15:05:05;;;;;;;;;;;29.80;50.30;;;;;;4998658;28;19993;-67
2023/06/13 15:07:31;;;;;;;;;;;29.80;49.60;;;;;;4985091;28;20405;-67
2023/06/13 15:09:56;;;;;;;;;;;30.00;49.00;;;;;;4968589;28;19921;-68
2023/06/13 15:12:22;;;;;;;;;;;30.10;48.80;;;;;;4983241;28;19914;-67
2023/06/13 15:14:48;;;;;;;;;;;30.30;48.40;;;;;;4967315;28;19914;-66
2023/06/13 15:17:13;;;;;;;;;;;30.30;48.90;;;;;;4968298;28;20477;-67
2023/06/13 15:19:39;;;;;;;;;;;30.40;48.30;;;;;;4968200;28;19914;-66
2023/06/13 15:22:05;;;;;;;;;;;30.50;48.10;;;;;;4968410;28;19989;-66
2023/06/13 15:24:31;;;;;;;;;;;30.60;48.60;;;;;;5063497;28;19920;-66
2023/06/13 15:26:57;;;;;;;;;;;30.70;47.60;;;;;;5088865;28;19961;-68
2023/06/13 15:29:22;;;;;;;;;;;30.80;47.80;;;;;;5021512;28;19921;-68
2023/06/13 15:31:48;;;;;;;;;;;30.80;47.40;;;;;;4987380;28;20502;-66
2023/06/13 15:34:13;;;;;;;;;;;30.90;47.00;;;;;;4985531;28;19917;-67
2023/06/13 15:36:39;;;;;;;;;;;31.00;47.00;;;;;;4986189;28;19957;-67
2023/06/13 15:39:06;;;;;;;;;;;31.00;46.60;;;;;;4972286;28;19957;-72
2023/06/13 15:41:33;;;;;;;;;;;31.00;46.50;;;;;;4982473;28;19942;-67
2023/06/13 15:43:58;;;;;;;;;;;31.10;47.60;;;;;;4968285;28;19968;-67
2023/06/13 15:46:23;;;;;;;;;;;31.20;46.40;;;;;;4981455;28;19976;-66
2023/06/13 15:48:49;;;;;;;;;;;31.20;46.20;;;;;;4986852;28;20371;-66
2023/06/13 15:51:14;;;;;;;;;;;31.50;46.10;;;;;;4967950;28;19921;-66
2023/06/13 15:53:40;;;;;;;;;;;31.90;46.70;;;;;;4980546;28;19914;-67
2023/06/13 15:56:06;;;;;;;;;;;32.20;46.00;;;;;;4986285;28;19918;-66
2023/06/13 15:58:32;;;;;;;;;;;32.40;46.10;;;;;;4989837;28;20294;-66
2023/06/13 16:00:57;;;;;;;;;;;32.70;46.40;;;;;;4999292;28;19913;-67
2023/06/13 16:03:23;;;;;;;;;;;32.80;46.50;;;;;;5003446;28;19925;-67
2023/06/13 16:05:52;;;;;;;;;;;32.90;46.30;;;;;;4999848;28;19918;-67
2023/06/13 16:08:18;;;;;;;;;;;33.00;46.30;;;;;;4984551;28;19914;-67
2023/06/13 16:10:43;;;;;;;;;;;33.20;46.40;;;;;;4985942;28;19921;-67
2023/06/13 16:13:09;;;;;;;;;;;33.50;46.60;;;;;;4987865;28;19968;-67
2023/06/13 16:15:34;;;;;;;;;;;33.60;46.50;;;;;;4985777;28;19920;-67
2023/06/13 16:18:00;;;;;;;;;;;33.80;46.40;;;;;;4985509;28;19913;-67
2023/06/13 16:20:26;;;;;;;;;;;34.10;46.50;;;;;;4985932;28;19913;-67
2023/06/13 16:22:51;;;;;;;;;;;34.20;46.20;;;;;;4985720;28;19964;-67
2023/06/13 16:25:17;;;;;;;;;;;34.30;46.40;;;;;;4985423;28;19940;-67
2023/06/13 16:27:42;;;;;;;;;;;34.40;46.40;;;;;;4985686;28;19979;-67
2023/06/13 16:30:08;;;;;;;;;;;34.60;46.50;;;;;;4985564;28;19914;-67
2023/06/13 16:32:34;;;;;;;;;;;34.70;46.40;;;;;;4986919;28;19910;-67
2023/06/13 16:34:59;;;;;;;;;;;34.90;46.30;;;;;;4985581;28;19914;-67
2023/06/13 16:37:27;;;;;;;;;;;35.00;46.30;;;;;;4985434;28;20312;-67
2023/06/13 16:39:52;;;;;;;;;;;35.20;46.20;;;;;;4985027;28;19921;-67
2023/06/13 16:42:18;;;;;;;;;;;35.40;46.30;;;;;;4985060;28;19924;-67
2023/06/13 16:44:43;;;;;;;;;;;35.50;46.30;;;;;;4983541;28;20473;-67
2023/06/13 16:47:09;;;;;;;;;;;35.60;46.20;;;;;;5007846;28;19922;-67
2023/06/13 16:49:34;;;;;;;;;;;35.80;45.90;;;;;;4984877;28;19921;-67
2023/06/13 16:52:00;;;;;;;;;;;35.90;45.80;;;;;;4985599;28;19909;-67
2023/06/13 16:54:25;;;;;;;;;;;36.00;45.90;;;;;;4985096;28;19914;-67
2023/06/13 16:56:51;;;;;;;;;;;36.00;45.80;;;;;;4985514;28;20478;-67
2023/06/13 16:59:16;;;;;;;;;;;36.00;46.10;;;;;;4985762;28;20346;-67
2023/06/13 17:01:42;;;;;;;;;;;35.70;46.10;;;;;;4997093;28;20598;-67
2023/06/13 17:04:07;;;;;;;;;;;35.40;46.30;;;;;;5003562;28;19917;-67
2023/06/13 17:06:33;;;;;;;;;;;35.00;46.80;;;;;;4985275;28;19910;-67
2023/06/13 17:08:58;;;;;;;;;;;34.50;47.30;;;;;;4971043;28;19941;-67
2023/06/13 17:11:24;;;;;;;;;;;34.30;48.00;;;;;;4966028;28;19914;-67
2023/06/13 17:13:50;;;;;;;;;;;33.90;48.30;;;;;;4980920;28;19928;-67
2023/06/13 17:16:18;;;;;;;;;;;33.60;48.30;;;;;;4965752;28;20306;-67
2023/06/13 17:18:44;;;;;;;;;;;33.30;48.80;;;;;;4965862;28;19917;-67
2023/06/13 17:21:10;;;;;;;;;;;33.20;48.90;;;;;;4964680;28;19997;-67
2023/06/13 17:23:35;;;;;;;;;;;32.90;48.90;;;;;;4965785;28;19922;-67
2023/06/13 17:26:01;;;;;;;;;;;32.70;49.40;;;;;;4965852;28;20378;-67
2023/06/13 17:28:26;;;;;;;;;;;32.50;49.90;;;;;;5036048;28;19916;-67
2023/06/13 17:30:52;;;;;;;;;;;32.40;50.20;;;;;;5057606;28;19914;-67
2023/06/13 17:33:17;;;;;;;;;;;32.20;50.10;;;;;;5004789;28;19920;-67
2023/06/13 17:35:43;;;;;;;;;;;32.00;50.40;;;;;;5004411;28;19909;-67
2023/06/13 17:38:08;;;;;;;;;;;31.80;50.90;;;;;;4999086;28;19967;-67
2023/06/13 17:40:34;;;;;;;;;;;31.70;51.10;;;;;;4987308;28;19914;-67
2023/06/13 17:42:59;;;;;;;;;;;31.60;51.10;;;;;;4988471;28;19925;-67
2023/06/13 17:45:25;;;;;;;;;;;31.50;51.10;;;;;;4988473;28;19913;-67
2023/06/13 17:47:51;;;;;;;;;;;31.40;51.40;;;;;;4987606;28;20290;-67
2023/06/13 17:50:16;;;;;;;;;;;31.20;51.40;;;;;;4988314;28;19921;-67
2023/06/13 17:52:42;;;;;;;;;;;31.10;51.60;;;;;;4988312;28;19914;-68
2023/06/13 17:55:10;;;;;;;;;;;31.00;52.20;;;;;;4988330;28;19953;-67
2023/06/13 17:57:35;;;;;;;;;;;30.90;52.70;;;;;;4988254;28;19948;-67
2023/06/13 18:00:01;;;;;;;;;;;30.80;52.30;;;;;;4988420;28;19953;-67
2023/06/13 18:02:26;;;;;;;;;;;30.70;51.80;;;;;;5007414;28;19966;-69
2023/06/13 18:04:52;;;;;;;;;;;30.60;52.20;;;;;;5000745;28;19948;-67
2023/06/13 18:07:18;;;;;;;;;;;30.50;52.00;;;;;;5004386;28;19943;-67
2023/06/13 18:09:43;;;;;;;;;;;30.40;51.60;;;;;;4987903;28;19913;-67
2023/06/13 18:12:10;;;;;;;;;;;30.20;51.80;;;;;;4986894;28;19964;-67
2023/06/13 18:14:37;;;;;;;;;;;30.10;51.90;;;;;;4987956;28;19910;-67
2023/06/13 18:17:03;;;;;;;;;;;30.00;52.40;;;;;;4988841;28;19914;-67
2023/06/13 18:19:28;;;;;;;;;;;29.90;52.20;;;;;;4988857;28;19921;-67
2023/06/13 18:21:54;;;;;;;;;;;29.90;52.50;;;;;;4988918;28;19980;-67
2023/06/13 18:24:20;;;;;;;;;;;29.80;52.80;;;;;;4988793;28;19918;-67
2023/06/13 18:26:46;;;;;;;;;;;29.70;53.10;;;;;;4988473;28;19914;-67
2023/06/13 18:29:12;;;;;;;;;;;29.60;53.30;;;;;;4988939;28;19917;-67
2023/06/13 18:31:37;;;;;;;;;;;29.50;53.20;;;;;;5001044;28;19913;-67
2023/06/13 18:34:03;;;;;;;;;;;29.40;53.20;;;;;;5008416;28;20016;-67
2023/06/13 18:36:29;;;;;;;;;;;29.30;53.30;;;;;;5008160;28;19913;-67
2023/06/13 18:38:55;;;;;;;;;;;29.20;53.70;;;;;;4993918;28;19914;-67
2023/06/13 18:41:20;;;;;;;;;;;29.10;53.80;;;;;;4988444;28;19913;-67
2023/06/13 18:43:46;;;;;;;;;;;29.00;53.90;;;;;;4988671;28;20458;-68
2023/06/13 18:46:11;;;;;;;;;;;28.90;53.90;;;;;;4991464;28;19914;-67
2023/06/13 18:48:37;;;;;;;;;;;28.80;54.00;;;;;;4997341;28;20725;-67
2023/06/13 18:51:03;;;;;;;;;;;28.70;53.80;;;;;;4986165;28;20325;-67
2023/06/13 18:53:28;;;;;;;;;;;28.60;53.90;;;;;;4986438;28;19910;-67
2023/06/13 18:55:54;;;;;;;;;;;28.60;54.20;;;;;;4991997;28;19949;-67